createdAt,value
2019-04-23T00:00:29.402Z,47.82
2019-04-23T00:03:01.741Z,47.95
2019-04-23T00:05:41.749Z,47.87
2019-04-23T00:10:30.059Z,47.92
2019-04-23T00:15:23.279Z,47.91
2019-04-23T00:17:48.407Z,48.09
2019-04-23T00:20:25.717Z,48.09
2019-04-23T00:23:00.240Z,48.39
2019-04-23T00:25:44.957Z,48.52
2019-04-23T00:27:59.542Z,48.84
2019-04-23T00:30:36.480Z,48.71
2019-04-23T00:32:59.218Z,49.04
2019-04-23T00:35:26.072Z,49.03
2019-04-23T00:37:55.001Z,48.91
2019-04-23T00:40:25.992Z,49.07
2019-04-23T00:42:47.897Z,49.27
2019-04-23T00:45:27.046Z,49.50
2019-04-23T00:47:49.906Z,49.54
2019-04-23T00:50:24.836Z,49.48
2019-04-23T00:52:46.146Z,49.23
2019-04-23T00:55:14.494Z,49.35
2019-04-23T00:57:43.453Z,50.05
2019-04-23T01:02:49.221Z,50.51
2019-04-23T01:05:11.714Z,50.17
2019-04-23T01:07:38.333Z,49.67
2019-04-23T01:10:08.790Z,49.73
2019-04-23T01:12:39.749Z,49.93
2019-04-23T01:15:04.755Z,50.14
2019-04-23T01:17:49.296Z,50.29
2019-04-23T01:20:09.720Z,50.16
2019-04-23T01:22:16.661Z,50.09
2019-04-23T01:24:46.679Z,50.24
2019-04-23T01:27:44.622Z,50.55
2019-04-23T01:30:09.728Z,50.53
2019-04-23T01:35:15.249Z,50.94
2019-04-23T01:37:30.540Z,51.37
2019-04-23T01:39:58.163Z,51.06
2019-04-23T01:42:37.334Z,51.51
2019-04-23T01:45:03.363Z,51.55
2019-04-23T01:47:28.137Z,51.68
2019-04-23T01:50:01.627Z,51.99
2019-04-23T01:52:24.924Z,52.13
2019-04-23T01:54:49.913Z,52.28
2019-04-23T01:57:21.514Z,52.64
2019-04-23T01:59:49.380Z,52.97
2019-04-23T02:02:12.226Z,52.96
2019-04-23T02:04:34.616Z,53.27
2019-04-23T02:07:06.395Z,53.30
2019-04-23T02:12:05.863Z,53.56
2019-04-23T02:17:08.054Z,53.58
2019-04-23T02:19:29.369Z,53.37
2019-04-23T02:22:03.672Z,53.28
2019-04-23T02:24:34.087Z,53.67
2019-04-23T02:26:55.710Z,53.54
2019-04-23T02:29:43.544Z,53.59
2019-04-23T02:32:15.182Z,53.75
2019-04-23T02:34:47.208Z,54.04
2019-04-23T02:37:35.622Z,53.92
2019-04-23T02:39:29.317Z,54.00
2019-04-23T02:44:31.961Z,54.34
2019-04-23T02:51:54.665Z,54.92
2019-04-23T02:56:49.237Z,55.21
2019-04-23T03:01:29.840Z,55.40
2019-04-23T03:04:10.329Z,55.47
2019-04-23T03:06:41.160Z,55.60
2019-04-23T03:09:05.062Z,55.51
2019-04-23T03:14:00.363Z,55.64
2019-04-23T03:21:44.592Z,56.08
2019-04-23T03:26:55.620Z,56.11
2019-04-23T03:35:16.353Z,56.99
2019-04-23T03:37:03.978Z,57.59
2019-04-23T03:38:56.346Z,57.42
2019-04-23T03:44:14.428Z,57.62
2019-04-23T03:46:34.119Z,57.54
2019-04-23T03:51:26.021Z,58.11
2019-04-23T03:56:34.453Z,58.12
2019-04-23T04:01:22.865Z,58.08
2019-04-23T04:06:31.111Z,58.96
2019-04-23T04:08:38.926Z,58.72
2019-04-23T04:11:10.836Z,58.66
2019-04-23T04:16:01.289Z,59.11
2019-04-23T04:18:39.198Z,59.19
2019-04-23T04:21:08.494Z,59.09
2019-04-23T04:30:49.359Z,58.75
2019-04-23T04:33:31.578Z,59.13
2019-04-23T04:35:47.307Z,59.06
2019-04-23T04:38:25.709Z,59.11
2019-04-23T04:40:54.806Z,59.34
2019-04-23T04:48:18.111Z,59.18
2019-04-23T04:50:52.982Z,59.22
2019-04-23T04:53:30.495Z,59.36
2019-04-23T04:55:47.714Z,59.53
2019-04-23T04:58:13.062Z,59.72
2019-04-23T05:03:19.231Z,59.44
2019-04-23T05:08:07.229Z,59.35
2019-04-23T05:13:21.388Z,59.43
2019-04-23T05:15:39.440Z,59.46
2019-04-23T05:23:25.455Z,59.49
2019-04-23T05:26:11.537Z,59.52
2019-04-23T05:28:31.624Z,59.33
2019-04-23T05:30:44.544Z,59.63
2019-04-23T05:36:02.647Z,59.74
2019-04-23T05:38:22.304Z,59.52
2019-04-23T05:40:59.345Z,59.64
2019-04-23T05:43:03.269Z,59.70
2019-04-23T05:45:38.241Z,59.20
2019-04-23T05:48:09.700Z,58.93
2019-04-23T05:50:44.457Z,58.66
2019-04-23T05:53:07.727Z,58.92
2019-04-23T05:55:34.343Z,58.78
2019-04-23T05:58:01.076Z,58.84
2019-04-23T06:00:34.384Z,58.70
2019-04-23T06:05:25.018Z,59.18
2019-04-23T06:10:23.142Z,58.87
2019-04-23T06:12:43.682Z,58.72
2019-04-23T06:15:14.584Z,58.49
2019-04-23T06:17:39.354Z,58.99
2019-04-23T06:20:11.413Z,59.57
2019-04-23T06:25:19.594Z,60.14
2019-04-23T06:27:33.848Z,60.62
2019-04-23T06:30:20.796Z,60.20
2019-04-23T06:35:00.938Z,60.99
2019-04-23T06:37:27.692Z,60.45
2019-04-23T06:39:55.646Z,61.10
2019-04-23T06:42:18.014Z,60.92
2019-04-23T06:44:51.752Z,61.55
2019-04-23T06:47:16.699Z,61.00
2019-04-23T06:54:52.523Z,60.97
2019-04-23T06:57:15.315Z,61.17
2019-04-23T06:59:39.071Z,60.47
2019-04-23T07:02:26.161Z,60.42
2019-04-23T07:07:29.097Z,59.63
2019-04-23T07:09:18.692Z,59.72
2019-04-23T07:11:54.738Z,59.38
2019-04-23T07:14:33.910Z,59.59
2019-04-23T07:16:52.616Z,59.27
2019-04-23T07:21:50.617Z,58.38
2019-04-23T07:24:19.772Z,59.15
2019-04-23T07:26:55.813Z,59.31
2019-04-23T07:29:22.167Z,58.23
2019-04-23T07:34:10.263Z,56.32
2019-04-23T07:41:47.991Z,57.26
2019-04-23T07:44:33.185Z,57.53
2019-04-23T07:49:30.727Z,56.49
2019-04-23T07:52:04.790Z,56.64
2019-04-23T07:54:29.053Z,56.20
2019-04-23T07:57:02.180Z,56.48
2019-04-23T07:59:25.125Z,56.24
2019-04-23T08:01:52.446Z,55.81
2019-04-23T08:04:18.235Z,54.92
2019-04-23T08:06:47.622Z,54.33
2019-04-23T08:09:20.459Z,53.65
2019-04-23T08:11:56.237Z,53.71
2019-04-23T08:14:25.661Z,53.44
2019-04-23T08:16:38.399Z,53.89
2019-04-23T08:19:24.439Z,53.48
2019-04-23T08:21:32.209Z,53.66
2019-04-23T08:26:50.224Z,52.04
2019-04-23T08:29:21.963Z,51.20
2019-04-23T08:32:04.034Z,51.20
2019-04-23T08:34:32.111Z,51.88
2019-04-23T08:36:48.273Z,51.83
2019-04-23T08:39:21.553Z,52.48
2019-04-23T08:41:58.123Z,52.48
2019-04-23T08:44:23.878Z,51.82
2019-04-23T08:54:47.045Z,49.87
2019-04-23T08:57:02.714Z,50.46
2019-04-23T08:59:33.276Z,49.68
2019-04-23T09:02:07.705Z,49.66
2019-04-23T09:04:23.623Z,49.66
2019-04-23T09:06:53.362Z,49.42
2019-04-23T09:09:20.269Z,48.97
2019-04-23T09:11:45.793Z,48.97
2019-04-23T09:14:25.866Z,49.72
2019-04-23T09:16:44.695Z,49.54
2019-04-23T09:21:37.434Z,48.82
2019-04-23T09:24:05.780Z,49.92
2019-04-23T09:26:26.259Z,49.59
2019-04-23T09:29:31.830Z,49.48
2019-04-23T09:34:31.623Z,48.56
2019-04-23T09:36:59.686Z,48.73
2019-04-23T09:39:27.324Z,47.99
2019-04-23T09:42:02.319Z,48.05
2019-04-23T09:47:34.141Z,49.11
2019-04-23T09:49:50.812Z,48.56
2019-04-23T09:52:20.114Z,47.84
2019-04-23T09:55:01.074Z,48.05
2019-04-23T09:57:10.462Z,48.32
2019-04-23T09:59:46.111Z,48.72
2019-04-23T10:02:01.270Z,48.46
2019-04-23T10:04:22.161Z,48.31
2019-04-23T10:06:40.767Z,48.48
2019-04-23T10:09:10.224Z,48.10
2019-04-23T10:11:34.773Z,47.43
2019-04-23T10:14:00.867Z,48.04
2019-04-23T10:16:30.215Z,48.62
2019-04-23T10:18:55.162Z,48.28
2019-04-23T10:21:21.510Z,48.10
2019-04-23T10:23:47.632Z,48.10
2019-04-23T10:26:14.269Z,47.59
2019-04-23T10:28:44.154Z,47.14
2019-04-23T10:31:10.130Z,45.84
2019-04-23T10:33:35.912Z,44.53
2019-04-23T10:36:08.508Z,43.70
2019-04-23T10:38:32.047Z,45.11
2019-04-23T10:40:58.063Z,46.88
2019-04-23T10:43:25.039Z,44.79
2019-04-23T10:46:25.587Z,43.70
2019-04-23T10:49:22.215Z,45.60
2019-04-23T10:54:24.220Z,46.29
2019-04-23T10:56:44.910Z,44.41
2019-04-23T10:59:10.390Z,45.40
2019-04-23T11:01:45.233Z,44.06
2019-04-23T11:04:17.339Z,44.73
2019-04-23T11:06:44.402Z,43.54
2019-04-23T11:09:22.513Z,42.52
2019-04-23T11:11:36.189Z,43.37
2019-04-23T11:14:13.347Z,43.74
2019-04-23T11:16:49.551Z,42.02
2019-04-23T11:19:04.558Z,42.45
2019-04-23T11:21:32.798Z,43.14
2019-04-23T11:24:06.472Z,45.08
2019-04-23T11:28:50.391Z,45.63
2019-04-23T11:33:59.445Z,46.27
2019-04-23T11:38:56.242Z,45.07
2019-04-23T11:41:26.363Z,45.01
2019-04-23T11:43:46.419Z,45.12
2019-04-23T11:48:54.667Z,44.62
2019-04-23T11:56:18.893Z,44.16
2019-04-23T11:58:39.262Z,44.76
2019-04-23T12:01:18.369Z,44.69
2019-04-23T12:03:40.862Z,43.60
2019-04-23T12:06:25.195Z,43.02
2019-04-23T12:09:07.386Z,43.01
2019-04-23T12:11:54.646Z,42.20
2019-04-23T12:19:44.050Z,41.02
2019-04-23T12:21:52.825Z,41.05
2019-04-23T12:24:37.942Z,40.72
2019-04-23T12:27:01.972Z,40.00
2019-04-23T12:29:21.031Z,40.97
2019-04-23T12:31:47.699Z,40.77
2019-04-23T12:34:14.443Z,39.96
2019-04-23T12:36:44.097Z,39.81
2019-04-23T12:39:11.353Z,38.88
2019-04-23T12:41:49.190Z,39.00
2019-04-23T12:44:08.138Z,38.26
2019-04-23T12:46:39.926Z,37.87
2019-04-23T12:49:10.690Z,37.80
2019-04-23T12:51:41.276Z,37.80
2019-04-23T12:53:57.987Z,37.21
2019-04-23T12:56:34.753Z,36.97
2019-04-23T12:58:45.209Z,36.08
2019-04-23T13:01:24.427Z,36.80
2019-04-23T13:03:45.915Z,37.14
2019-04-23T13:06:17.015Z,37.13
2019-04-23T13:08:46.117Z,36.05
2019-04-23T13:11:13.957Z,36.68
2019-04-23T13:16:12.276Z,37.18
2019-04-23T13:18:41.561Z,36.39
2019-04-23T13:21:15.866Z,36.59
2019-04-23T13:23:34.804Z,36.70
2019-04-23T13:25:57.606Z,37.11
2019-04-23T13:28:28.036Z,36.89
2019-04-23T13:31:01.736Z,37.04
2019-04-23T13:33:35.260Z,35.93
2019-04-23T13:36:02.688Z,35.77
2019-04-23T13:38:28.537Z,35.51
2019-04-23T13:40:59.651Z,35.82
2019-04-23T13:43:28.230Z,35.78
2019-04-23T13:45:59.200Z,35.27
2019-04-23T13:48:10.786Z,35.12
2019-04-23T13:53:33.566Z,35.51
2019-04-23T13:55:36.242Z,35.05
2019-04-23T13:58:23.651Z,36.20
2019-04-23T14:00:48.131Z,36.01
2019-04-23T14:03:04.085Z,35.75
2019-04-23T14:05:52.745Z,35.68
2019-04-23T14:08:34.892Z,35.18
2019-04-23T14:11:02.292Z,35.86
2019-04-23T14:13:39.340Z,35.48
2019-04-23T14:15:55.813Z,36.20
2019-04-23T14:18:44.018Z,35.09
2019-04-23T14:20:38.393Z,35.27
2019-04-23T14:23:10.726Z,34.96
2019-04-23T14:25:40.268Z,34.40
2019-04-23T14:28:14.312Z,35.02
2019-04-23T14:30:38.786Z,35.14
2019-04-23T14:33:11.460Z,35.78
2019-04-23T14:35:32.403Z,35.56
2019-04-23T14:38:19.965Z,35.22
2019-04-23T14:40:43.146Z,35.74
2019-04-23T14:43:04.317Z,35.90
2019-04-23T14:48:02.797Z,36.41
2019-04-23T14:50:32.324Z,36.39
2019-04-23T14:52:57.174Z,36.84
2019-04-23T14:58:06.364Z,37.59
2019-04-23T15:00:17.604Z,37.69
2019-04-23T15:02:53.345Z,37.46
2019-04-23T15:05:17.366Z,37.23
2019-04-23T15:15:10.027Z,38.44
2019-04-23T15:17:28.500Z,38.22
2019-04-23T15:20:08.332Z,38.09
2019-04-23T15:22:50.998Z,38.03
2019-04-23T15:25:23.462Z,38.22
2019-04-23T15:29:51.159Z,37.41
2019-04-23T15:32:45.361Z,36.99
2019-04-23T15:35:05.250Z,36.78
2019-04-23T15:37:40.956Z,36.75
2019-04-23T15:40:00.790Z,36.97
2019-04-23T15:42:25.467Z,36.34
2019-04-23T15:44:55.354Z,36.57
2019-04-23T15:49:51.343Z,35.67
2019-04-23T15:52:42.034Z,35.86
2019-04-23T15:54:49.146Z,35.80
2019-04-23T15:57:13.254Z,35.51
2019-04-23T15:59:40.872Z,35.56
2019-04-23T16:01:43.102Z,35.84
2019-04-23T16:04:08.569Z,35.75
2019-04-23T16:06:36.893Z,36.10
2019-04-23T16:09:23.177Z,36.51
2019-04-23T16:12:06.297Z,36.44
2019-04-23T16:14:33.219Z,37.20
2019-04-23T16:16:56.065Z,37.31
2019-04-23T16:20:00.239Z,37.36
2019-04-23T16:24:26.386Z,38.42
2019-04-23T16:29:53.768Z,38.54
2019-04-23T16:32:08.376Z,38.74
2019-04-23T16:34:56.186Z,38.31
2019-04-23T16:37:09.926Z,38.46
2019-04-23T16:39:30.870Z,39.09
2019-04-23T16:44:40.405Z,40.25
2019-04-23T16:47:03.768Z,40.90
2019-04-23T16:49:36.471Z,41.03
2019-04-23T16:51:57.442Z,41.05
2019-04-23T16:54:36.780Z,40.86
2019-04-23T16:57:15.269Z,40.76
2019-04-23T16:59:24.474Z,40.71
2019-04-23T17:01:50.421Z,40.44
2019-04-23T17:04:17.900Z,40.94
2019-04-23T17:06:59.615Z,40.92
2019-04-23T17:09:15.727Z,41.35
2019-04-23T17:11:33.924Z,42.34
2019-04-23T17:14:11.588Z,42.77
2019-04-23T17:16:34.020Z,42.84
2019-04-23T17:19:01.970Z,43.17
2019-04-23T17:21:31.354Z,43.92
2019-04-23T17:24:09.654Z,44.56
2019-04-23T17:26:25.594Z,45.16
2019-04-23T17:29:03.983Z,45.41
2019-04-23T17:31:32.768Z,45.53
2019-04-23T17:33:58.993Z,46.02
2019-04-23T17:46:54.279Z,48.56
2019-04-23T17:51:48.577Z,48.33
2019-04-23T17:54:24.733Z,48.24
2019-04-23T17:57:00.013Z,48.73
2019-04-23T17:59:15.903Z,48.92
2019-04-23T18:02:19.047Z,48.71
2019-04-23T18:04:10.653Z,49.31
2019-04-23T18:14:03.375Z,50.38
2019-04-23T18:16:35.418Z,51.21
2019-04-23T18:21:55.208Z,51.81
2019-04-23T18:24:16.865Z,51.91
2019-04-23T18:27:00.643Z,51.96
2019-04-23T18:32:16.798Z,52.29
2019-04-23T18:34:59.640Z,52.86
2019-04-23T18:37:11.325Z,53.01
2019-04-23T18:39:37.301Z,53.51
2019-04-23T18:42:13.608Z,53.73
2019-04-23T18:44:40.342Z,53.78
2019-04-23T18:47:04.316Z,53.94
2019-04-23T18:49:35.551Z,54.17
2019-04-23T18:52:17.047Z,54.42
2019-04-23T18:54:22.380Z,54.77
2019-04-23T18:57:06.561Z,55.02
2019-04-23T19:02:17.923Z,55.43
2019-04-23T19:07:31.876Z,56.07
2019-04-23T19:10:28.422Z,56.33
2019-04-23T19:12:42.762Z,56.55
2019-04-23T19:15:17.137Z,56.77
2019-04-23T19:17:48.278Z,56.81
2019-04-23T19:20:07.238Z,57.31
2019-04-23T19:22:43.955Z,58.19
2019-04-23T19:24:53.411Z,57.96
2019-04-23T19:27:37.138Z,58.15
2019-04-23T19:29:59.919Z,58.15
2019-04-23T19:32:28.288Z,58.24
2019-04-23T19:35:09.631Z,59.29
2019-04-23T19:37:31.862Z,60.11
2019-04-23T19:39:47.842Z,60.36
2019-04-23T19:42:13.897Z,60.41
2019-04-23T19:44:47.509Z,60.41
2019-04-23T19:51:59.591Z,61.12
2019-04-23T19:54:44.522Z,61.00
2019-04-23T19:57:01.950Z,60.66
2019-04-23T20:04:39.337Z,59.21
2019-04-23T20:19:30.145Z,61.41
2019-04-23T20:22:07.430Z,61.93
2019-04-23T20:26:51.558Z,62.28
2019-04-23T20:29:45.129Z,62.74
2019-04-23T20:36:49.228Z,62.88
2019-04-23T20:39:30.341Z,62.83
2019-04-23T20:42:05.244Z,63.17
2019-04-23T20:44:37.358Z,63.50
2019-04-23T20:47:00.207Z,63.49
2019-04-23T20:49:16.605Z,63.70
2019-04-23T20:51:51.384Z,63.54
2019-04-23T20:54:18.334Z,64.37
2019-04-23T20:56:55.998Z,64.32
2019-04-23T20:59:22.498Z,64.75
2019-04-23T21:02:06.033Z,64.76
2019-04-23T21:04:28.187Z,64.91
2019-04-23T21:06:58.006Z,64.56
2019-04-23T21:09:52.958Z,64.99
2019-04-23T21:11:58.062Z,64.99
2019-04-23T21:16:48.098Z,65.33
2019-04-23T21:19:25.909Z,65.65
2019-04-23T21:22:04.373Z,65.98
2019-04-23T21:24:39.710Z,66.13
2019-04-23T21:27:20.441Z,66.36
2019-04-23T21:29:53.810Z,67.29
2019-04-23T21:32:17.988Z,67.62
2019-04-23T21:34:48.982Z,67.83
2019-04-23T21:37:06.526Z,68.36
2019-04-23T21:40:19.107Z,68.31
2019-04-23T21:42:39.002Z,68.30
2019-04-23T21:44:52.689Z,68.48
2019-04-23T21:47:15.412Z,68.41
2019-04-23T21:52:13.445Z,68.93
2019-04-23T21:54:50.699Z,69.15
2019-04-23T21:57:11.049Z,69.25
2019-04-23T21:59:46.637Z,69.25
2019-04-23T22:02:23.891Z,68.88
2019-04-23T22:04:44.845Z,69.54
2019-04-23T22:07:07.104Z,69.70
2019-04-23T22:09:43.767Z,69.84
2019-04-23T22:17:02.941Z,69.58
2019-04-23T22:19:31.017Z,69.40
2019-04-23T22:24:27.412Z,69.44
2019-04-23T22:27:05.867Z,69.11
2019-04-23T22:29:25.685Z,69.31
2019-04-23T22:31:52.121Z,69.75
2019-04-23T22:36:54.905Z,70.06
2019-04-23T22:41:49.070Z,70.53
2019-04-23T22:44:12.515Z,70.58
2019-04-23T22:46:52.471Z,70.74
2019-04-23T22:51:53.242Z,71.05
2019-04-23T22:54:12.158Z,71.01
2019-04-23T22:56:35.477Z,71.09
2019-04-23T22:59:11.149Z,70.72
2019-04-23T23:01:39.821Z,71.15
2019-04-23T23:09:18.970Z,71.65
2019-04-23T23:11:35.430Z,71.66
2019-04-23T23:14:09.120Z,72.15
2019-04-23T23:18:57.389Z,72.52
2019-04-23T23:21:22.304Z,72.51
2019-04-23T23:23:52.975Z,72.77
2019-04-23T23:26:15.916Z,73.22
2019-04-23T23:31:10.197Z,73.57
2019-04-23T23:38:45.602Z,73.46
2019-04-23T23:41:15.668Z,73.56
2019-04-23T23:43:35.645Z,73.57
2019-04-23T23:46:13.699Z,73.71
2019-04-23T23:48:29.750Z,73.58
2019-04-23T23:53:29.827Z,73.79
2019-04-23T23:56:11.212Z,73.95
2019-04-23T23:58:36.034Z,73.88
